createdAt,value
2022-10-21T00:01:11.990Z,29.27
2022-10-21T00:03:38.772Z,34.70
2022-10-21T00:06:05.841Z,46.80
2022-10-21T00:08:32.500Z,35.47
2022-10-21T00:11:00.248Z,34.33
2022-10-21T00:13:27.482Z,45.23
2022-10-21T00:15:59.458Z,45.43
2022-10-21T00:18:26.014Z,39.00
2022-10-21T00:20:52.548Z,51.33
2022-10-21T00:23:19.179Z,36.03
2022-10-21T00:25:45.733Z,43.57
2022-10-21T00:28:12.248Z,43.53
2022-10-21T00:30:42.651Z,30.60
2022-10-21T00:33:09.168Z,36.33
2022-10-21T00:35:38.033Z,37.60
2022-10-21T00:38:05.144Z,42.37
2022-10-21T00:40:32.271Z,42.53
2022-10-21T00:42:59.178Z,25.90
2022-10-21T00:45:26.954Z,29.97
2022-10-21T00:48:02.744Z,27.70
2022-10-21T00:50:40.179Z,23.57
2022-10-21T00:53:10.741Z,22.93
2022-10-21T00:55:39.209Z,37.40
2022-10-21T00:58:05.849Z,19.90
2022-10-21T01:00:32.433Z,26.73
2022-10-21T01:02:59.217Z,19.30
2022-10-21T01:05:25.777Z,25.57
2022-10-21T01:07:52.354Z,16.83
2022-10-21T01:10:19.650Z,19.30
2022-10-21T01:13:04.840Z,14.77
2022-10-21T01:15:45.657Z,17.20
2022-10-21T01:18:21.360Z,15.17
2022-10-21T01:21:14.365Z,11.23
2022-10-21T01:23:40.817Z,14.00
2022-10-21T01:26:07.270Z,23.30
2022-10-21T01:28:43.004Z,11.60
2022-10-21T01:31:34.625Z,15.23
2022-10-21T01:34:10.941Z,9.90
2022-10-21T01:36:43.383Z,8.50
2022-10-21T01:39:23.170Z,11.37
2022-10-21T01:42:03.629Z,16.13
2022-10-21T01:44:43.394Z,12.30
2022-10-21T01:47:17.002Z,12.77
2022-10-21T01:49:53.561Z,18.63
2022-10-21T01:52:20.365Z,10.60
2022-10-21T01:54:52.717Z,12.30
2022-10-21T01:57:20.628Z,15.00
2022-10-21T01:59:47.845Z,11.80
2022-10-21T02:02:15.806Z,11.53
2022-10-21T02:04:43.095Z,14.83
2022-10-21T02:07:09.780Z,19.13
2022-10-21T02:09:36.467Z,14.97
2022-10-21T02:12:04.312Z,15.43
2022-10-21T02:14:39.520Z,16.90
2022-10-21T02:17:07.207Z,9.30
2022-10-21T02:19:33.827Z,9.80
2022-10-21T02:22:01.465Z,16.60
2022-10-21T02:24:34.238Z,11.20
2022-10-21T02:27:00.857Z,8.03
2022-10-21T02:29:29.886Z,9.47
2022-10-21T02:32:05.225Z,12.00
2022-10-21T02:34:37.688Z,9.60
2022-10-21T02:37:30.737Z,8.90
2022-10-21T02:40:01.824Z,16.27
2022-10-21T02:42:31.056Z,14.60
2022-10-21T02:44:57.520Z,21.40
2022-10-21T02:47:26.184Z,18.70
2022-10-21T02:49:52.704Z,15.40
2022-10-21T02:52:19.178Z,21.10
2022-10-21T02:54:45.939Z,13.30
2022-10-21T02:57:12.489Z,13.83
2022-10-21T02:59:38.995Z,24.70
2022-10-21T03:02:05.635Z,16.70
2022-10-21T03:04:32.297Z,20.60
2022-10-21T03:06:58.862Z,10.20
2022-10-21T03:09:25.471Z,16.17
2022-10-21T03:11:52.051Z,13.97
2022-10-21T03:14:18.789Z,23.53
2022-10-21T03:16:45.330Z,11.60
2022-10-21T03:19:12.045Z,14.90
2022-10-21T03:21:38.568Z,19.53
2022-10-21T03:24:10.922Z,13.33
2022-10-21T03:26:46.272Z,17.57
2022-10-21T03:29:12.777Z,17.43
2022-10-21T03:31:39.327Z,9.67
2022-10-21T03:34:05.857Z,24.43
2022-10-21T03:36:35.499Z,14.63
2022-10-21T03:39:02.044Z,17.80
2022-10-21T03:41:28.673Z,18.13
2022-10-21T03:43:55.157Z,16.60
2022-10-21T03:46:21.707Z,18.47
2022-10-21T03:48:48.166Z,15.80
2022-10-21T03:51:14.672Z,18.87
2022-10-21T03:53:43.723Z,24.13
2022-10-21T03:56:11.077Z,18.17
2022-10-21T03:58:37.646Z,15.30
2022-10-21T04:01:04.599Z,16.90
2022-10-21T04:03:31.258Z,12.50
2022-10-21T04:05:57.819Z,13.57
2022-10-21T04:08:24.393Z,14.67
2022-10-21T04:10:51.169Z,12.40
2022-10-21T04:13:17.997Z,18.13
2022-10-21T04:15:45.593Z,20.17
2022-10-21T04:18:12.073Z,18.90
2022-10-21T04:20:38.622Z,9.10
2022-10-21T04:23:05.143Z,7.60
2022-10-21T04:25:31.701Z,15.23
2022-10-21T04:27:58.149Z,10.27
2022-10-21T04:30:27.378Z,9.33
2022-10-21T04:32:53.985Z,11.03
2022-10-21T04:35:20.599Z,9.90
2022-10-21T04:37:47.110Z,8.93
2022-10-21T04:40:13.653Z,17.80
2022-10-21T04:42:40.180Z,13.63
2022-10-21T04:45:07.006Z,19.13
2022-10-21T04:47:33.541Z,15.07
2022-10-21T04:50:00.029Z,15.40
2022-10-21T04:52:26.564Z,16.43
2022-10-21T04:54:53.149Z,19.70
2022-10-21T04:57:20.417Z,20.47
2022-10-21T04:59:46.968Z,12.30
2022-10-21T05:02:13.894Z,20.93
2022-10-21T05:04:40.572Z,19.23
2022-10-21T05:07:07.253Z,10.57
2022-10-21T05:09:33.886Z,10.87
2022-10-21T05:12:00.403Z,9.70
2022-10-21T05:14:26.953Z,10.90
2022-10-21T05:16:53.517Z,11.30
2022-10-21T05:19:20.092Z,9.60
2022-10-21T05:21:47.325Z,11.30
2022-10-21T05:24:14.461Z,15.07
2022-10-21T05:26:41.066Z,10.13
2022-10-21T05:29:07.630Z,13.77
2022-10-21T05:31:34.913Z,11.40
2022-10-21T05:34:01.436Z,14.60
2022-10-21T05:36:28.021Z,10.40
2022-10-21T05:38:54.561Z,10.30
2022-10-21T05:41:21.077Z,10.40
2022-10-21T05:43:47.602Z,18.30
2022-10-21T05:46:14.199Z,9.93
2022-10-21T05:48:41.011Z,16.97
2022-10-21T05:51:08.568Z,13.10
2022-10-21T05:53:35.144Z,15.47
2022-10-21T05:56:04.120Z,10.27
2022-10-21T05:58:31.287Z,11.63
2022-10-21T06:00:58.072Z,9.10
2022-10-21T06:03:29.856Z,11.90
2022-10-21T06:05:58.404Z,21.07
2022-10-21T06:08:25.512Z,13.73
2022-10-21T06:11:02.514Z,8.60
2022-10-21T06:13:29.196Z,14.60
2022-10-21T06:15:55.995Z,13.20
2022-10-21T06:18:22.558Z,13.73
2022-10-21T06:20:49.072Z,18.17
2022-10-21T06:23:16.448Z,11.30
2022-10-21T06:25:43.892Z,14.00
2022-10-21T06:28:10.503Z,23.30
2022-10-21T06:30:37.025Z,11.73
2022-10-21T06:33:03.556Z,29.97
2022-10-21T06:35:30.308Z,14.30
2022-10-21T06:37:56.898Z,11.80
2022-10-21T06:40:23.576Z,16.00
2022-10-21T06:42:50.397Z,14.27
2022-10-21T06:45:17.078Z,14.83
2022-10-21T06:47:43.591Z,9.37
2022-10-21T06:50:10.310Z,9.57
2022-10-21T06:52:37.318Z,8.70
2022-10-21T06:55:04.077Z,16.10
2022-10-21T06:57:30.768Z,10.40
2022-10-21T06:59:57.462Z,6.63
2022-10-21T07:02:26.978Z,12.83
2022-10-21T07:04:53.554Z,14.13
2022-10-21T07:07:20.257Z,8.60
2022-10-21T07:09:46.844Z,12.40
2022-10-21T07:12:13.992Z,26.03
2022-10-21T07:14:40.662Z,14.93
2022-10-21T07:17:07.136Z,11.57
2022-10-21T07:19:33.658Z,10.20
2022-10-21T07:22:01.225Z,7.67
2022-10-21T07:24:27.957Z,13.87
2022-10-21T07:26:54.509Z,12.70
2022-10-21T07:29:21.165Z,12.27
2022-10-21T07:31:47.858Z,13.00
2022-10-21T07:34:14.531Z,17.90
2022-10-21T07:36:48.022Z,11.67
2022-10-21T07:39:15.921Z,16.73
2022-10-21T07:41:47.687Z,22.63
2022-10-21T07:44:14.556Z,15.03
2022-10-21T07:46:42.078Z,11.17
2022-10-21T07:49:08.856Z,15.60
2022-10-21T07:51:35.650Z,16.70
2022-10-21T07:54:02.725Z,29.87
2022-10-21T07:56:33.749Z,19.17
2022-10-21T07:59:01.765Z,16.43
2022-10-21T08:01:28.511Z,20.13
2022-10-21T08:03:56.026Z,18.53
2022-10-21T08:06:23.660Z,20.97
2022-10-21T08:08:50.205Z,13.67
2022-10-21T08:11:20.650Z,19.23
2022-10-21T08:13:47.231Z,17.53
2022-10-21T08:16:13.921Z,24.53
2022-10-21T08:18:40.658Z,16.43
2022-10-21T08:21:07.188Z,15.53
2022-10-21T08:23:33.761Z,19.37
2022-10-21T08:26:03.317Z,14.23
2022-10-21T08:28:30.941Z,20.00
2022-10-21T08:31:08.459Z,16.30
2022-10-21T08:33:35.193Z,19.40
2022-10-21T08:36:07.900Z,19.33
2022-10-21T08:38:34.563Z,17.17
2022-10-21T08:41:01.453Z,14.33
2022-10-21T08:43:33.797Z,13.90
2022-10-21T08:46:13.201Z,10.20
2022-10-21T08:48:43.364Z,6.07
2022-10-21T08:51:15.154Z,11.70
2022-10-21T08:53:44.824Z,11.07
2022-10-21T08:56:17.145Z,9.90
2022-10-21T08:58:47.805Z,14.90
2022-10-21T09:01:21.263Z,9.70
2022-10-21T09:03:54.454Z,25.90
2022-10-21T09:06:35.627Z,14.83
2022-10-21T09:09:08.250Z,11.03
2022-10-21T09:11:34.850Z,10.50
2022-10-21T09:14:07.451Z,22.60
2022-10-21T09:16:36.966Z,18.23
2022-10-21T09:19:11.429Z,16.53
2022-10-21T09:21:38.001Z,14.63
2022-10-21T09:24:11.288Z,12.33
2022-10-21T09:26:45.565Z,21.67
2022-10-21T09:29:15.273Z,22.30
2022-10-21T09:31:43.461Z,25.67
2022-10-21T09:34:30.280Z,16.17
2022-10-21T09:36:57.947Z,13.20
2022-10-21T09:39:29.432Z,17.83
2022-10-21T09:41:59.308Z,11.77
2022-10-21T09:44:28.360Z,18.40
2022-10-21T09:46:55.437Z,20.13
2022-10-21T09:50:05.427Z,17.00
2022-10-21T09:52:08.484Z,14.90
2022-10-21T09:54:39.817Z,10.60
2022-10-21T09:57:24.047Z,19.93
2022-10-21T09:59:51.553Z,20.50
2022-10-21T10:02:23.678Z,25.13
2022-10-21T10:04:50.232Z,10.23
2022-10-21T10:07:21.339Z,8.60
2022-10-21T10:09:48.170Z,10.57
2022-10-21T10:12:27.592Z,10.70
2022-10-21T10:14:55.544Z,13.73
2022-10-21T10:17:30.342Z,12.70
2022-10-21T10:20:06.068Z,14.53
2022-10-21T10:22:35.704Z,12.80
2022-10-21T10:25:08.714Z,3.27
2022-10-21T10:27:35.449Z,4.30
2022-10-21T10:30:02.632Z,2.60
2022-10-21T10:32:31.598Z,5.53
2022-10-21T10:35:00.234Z,6.10
2022-10-21T10:37:27.811Z,9.73
2022-10-21T10:39:58.878Z,5.57
2022-10-21T10:42:28.208Z,5.13
2022-10-21T10:45:22.521Z,3.53
2022-10-21T10:47:54.241Z,2.03
2022-10-21T10:50:39.542Z,6.33
2022-10-21T10:53:21.558Z,1.80
2022-10-21T10:55:51.513Z,2.40
2022-10-21T10:58:21.928Z,3.67
2022-10-21T11:00:51.979Z,3.00
2022-10-21T11:03:25.815Z,1.23
2022-10-21T11:05:56.004Z,1.13
2022-10-21T11:08:30.743Z,1.80
2022-10-21T11:11:01.631Z,3.20
2022-10-21T11:13:33.880Z,2.00
2022-10-21T11:16:19.279Z,1.60
2022-10-21T11:19:09.116Z,1.20
2022-10-21T11:21:46.722Z,3.17
2022-10-21T11:24:19.539Z,1.80
2022-10-21T11:26:52.394Z,2.63
2022-10-21T11:29:25.924Z,2.20
2022-10-21T11:32:11.316Z,11.43
2022-10-21T11:34:45.508Z,0.90
2022-10-21T11:37:21.499Z,1.07
2022-10-21T11:40:11.763Z,3.40
2022-10-21T11:42:42.470Z,0.90
2022-10-21T11:45:12.012Z,1.60
2022-10-21T11:47:50.640Z,6.40
2022-10-21T11:50:26.273Z,0.70
2022-10-21T11:53:12.345Z,1.47
2022-10-21T11:55:53.536Z,2.73
2022-10-21T11:58:20.417Z,1.20
2022-10-21T12:00:51.495Z,1.37
2022-10-21T12:03:41.292Z,1.50
2022-10-21T12:06:13.956Z,1.10
2022-10-21T12:08:51.599Z,1.30
2022-10-21T12:11:27.893Z,2.53
2022-10-21T12:13:57.393Z,0.70
2022-10-21T12:16:28.347Z,1.23
2022-10-21T12:18:56.475Z,1.53
2022-10-21T12:21:28.237Z,0.80
2022-10-21T12:23:59.029Z,0.80
2022-10-21T12:26:31.144Z,1.10
2022-10-21T12:29:00.848Z,1.43
2022-10-21T12:31:45.513Z,1.10
2022-10-21T12:34:12.944Z,1.23
2022-10-21T12:36:41.549Z,2.50
2022-10-21T12:39:16.412Z,2.40
2022-10-21T12:41:44.225Z,1.17
2022-10-21T12:44:13.855Z,1.43
2022-10-21T12:46:54.889Z,1.27
2022-10-21T12:49:32.717Z,2.80
2022-10-21T12:52:02.297Z,2.63
2022-10-21T12:54:30.872Z,1.70
2022-10-21T12:57:02.252Z,5.77
2022-10-21T12:59:31.264Z,3.13
2022-10-21T13:02:08.052Z,2.20
2022-10-21T13:04:34.541Z,1.57
2022-10-21T13:07:13.226Z,2.30
2022-10-21T13:09:41.718Z,2.50
2022-10-21T13:12:08.169Z,8.00
2022-10-21T13:14:55.496Z,0.90
2022-10-21T13:17:23.139Z,0.90
2022-10-21T13:19:53.555Z,5.60
2022-10-21T13:22:22.397Z,2.10
2022-10-21T13:24:50.086Z,0.80
2022-10-21T13:27:43.219Z,2.47
2022-10-21T13:30:25.165Z,1.23
2022-10-21T13:33:00.556Z,1.10
2022-10-21T13:35:46.464Z,1.20
2022-10-21T13:38:24.389Z,1.57
2022-10-21T13:41:01.892Z,1.37
2022-10-21T13:43:34.095Z,1.47
2022-10-21T13:46:07.425Z,1.57
2022-10-21T13:48:38.499Z,1.40
2022-10-21T13:51:17.424Z,2.20
2022-10-21T13:53:45.974Z,0.80
2022-10-21T13:56:20.924Z,2.60
2022-10-21T13:58:47.727Z,1.10
2022-10-21T14:01:18.573Z,0.80
2022-10-21T14:03:45.716Z,2.83
2022-10-21T14:06:18.391Z,3.07
2022-10-21T14:08:46.420Z,5.43
2022-10-21T14:11:36.486Z,0.70
2022-10-21T14:14:07.235Z,4.10
2022-10-21T14:16:42.335Z,5.30
2022-10-21T14:19:17.287Z,0.90
2022-10-21T14:21:46.090Z,2.07
2022-10-21T14:24:25.030Z,1.93
2022-10-21T14:26:51.902Z,2.07
2022-10-21T14:29:18.854Z,1.20
2022-10-21T14:31:46.603Z,2.70
2022-10-21T14:34:26.896Z,3.60
2022-10-21T14:37:19.767Z,5.40
2022-10-21T14:39:46.663Z,1.80
2022-10-21T14:42:17.712Z,8.83
2022-10-21T14:44:44.827Z,1.67
2022-10-21T14:47:25.870Z,2.60
2022-10-21T14:49:53.705Z,4.40
2022-10-21T14:52:26.400Z,3.10
2022-10-21T14:54:54.770Z,2.40
2022-10-21T14:57:36.781Z,0.97
2022-10-21T15:00:03.749Z,0.80
2022-10-21T15:02:34.450Z,2.10
2022-10-21T15:05:01.687Z,4.37
2022-10-21T15:07:29.102Z,2.70
2022-10-21T15:09:57.321Z,2.10
2022-10-21T15:12:23.903Z,4.97
2022-10-21T15:14:50.546Z,2.70
2022-10-21T15:17:17.158Z,6.20
2022-10-21T15:19:46.453Z,2.73
2022-10-21T15:22:33.968Z,2.40
2022-10-21T15:25:06.058Z,2.40
2022-10-21T15:27:39.371Z,1.83
2022-10-21T15:30:28.899Z,2.77
2022-10-21T15:32:55.680Z,0.77
2022-10-21T15:35:22.773Z,1.53
2022-10-21T15:37:49.976Z,3.73
2022-10-21T15:40:17.888Z,1.87
2022-10-21T15:42:45.651Z,1.80
2022-10-21T15:45:16.625Z,1.60
2022-10-21T15:47:43.395Z,0.90
2022-10-21T15:50:19.661Z,1.00
2022-10-21T15:52:46.400Z,1.60
2022-10-21T15:55:13.100Z,2.47
2022-10-21T15:57:41.910Z,2.87
2022-10-21T16:00:19.208Z,1.43
2022-10-21T16:02:46.796Z,6.50
2022-10-21T16:05:13.706Z,4.63
2022-10-21T16:07:40.440Z,6.13
2022-10-21T16:10:18.017Z,11.57
2022-10-21T16:12:44.653Z,2.27
2022-10-21T16:15:11.364Z,4.60
2022-10-21T16:17:38.167Z,3.30
2022-10-21T16:20:04.964Z,1.67
2022-10-21T16:22:31.754Z,2.80
2022-10-21T16:24:58.353Z,3.43
2022-10-21T16:27:43.476Z,7.93
2022-10-21T16:30:16.666Z,2.80
2022-10-21T16:32:43.245Z,1.10
2022-10-21T16:35:10.702Z,5.20
2022-10-21T16:37:37.739Z,1.60
2022-10-21T16:40:13.841Z,3.07
2022-10-21T16:42:40.727Z,8.83
2022-10-21T16:45:07.792Z,1.63
2022-10-21T16:47:34.732Z,6.87
2022-10-21T16:50:02.460Z,8.83
2022-10-21T16:52:29.069Z,5.83
2022-10-21T16:54:55.695Z,8.20
2022-10-21T16:57:22.364Z,2.30
2022-10-21T16:59:49.384Z,2.40
2022-10-21T17:02:40.150Z,3.40
2022-10-21T17:05:07.662Z,3.00
2022-10-21T17:07:34.285Z,13.30
2022-10-21T17:10:01.954Z,2.70
2022-10-21T17:12:31.239Z,1.97
2022-10-21T17:14:58.038Z,9.10
2022-10-21T17:17:24.624Z,6.40
2022-10-21T17:19:51.310Z,11.73
2022-10-21T17:22:17.947Z,9.70
2022-10-21T17:24:45.463Z,4.40
2022-10-21T17:27:14.724Z,3.60
2022-10-21T17:29:44.386Z,6.13
2022-10-21T17:32:11.482Z,4.93
2022-10-21T17:34:40.011Z,2.10
2022-10-21T17:37:08.299Z,1.93
2022-10-21T17:39:35.155Z,2.70
2022-10-21T17:42:02.077Z,2.60
2022-10-21T17:44:28.660Z,7.40
2022-10-21T17:46:55.407Z,3.63
2022-10-21T17:49:23.112Z,3.00
2022-10-21T17:51:50.044Z,6.20
2022-10-21T17:54:17.030Z,7.33
2022-10-21T17:56:43.663Z,2.70
2022-10-21T17:59:10.790Z,4.60
2022-10-21T18:01:38.562Z,7.13
2022-10-21T18:04:05.145Z,4.90
2022-10-21T18:06:31.789Z,2.97
2022-10-21T18:08:59.359Z,3.37
2022-10-21T18:11:26.128Z,5.10
2022-10-21T18:13:55.269Z,1.83
2022-10-21T18:16:23.776Z,2.10
2022-10-21T18:18:50.575Z,5.27
2022-10-21T18:21:18.325Z,6.73
2022-10-21T18:23:46.329Z,3.33
2022-10-21T18:26:19.447Z,3.70
2022-10-21T18:28:53.546Z,1.70
2022-10-21T18:31:21.577Z,3.97
2022-10-21T18:33:48.698Z,4.23
2022-10-21T18:36:35.837Z,6.80
2022-10-21T18:39:02.610Z,4.83
2022-10-21T18:41:30.356Z,14.73
2022-10-21T18:44:00.297Z,9.00
2022-10-21T18:46:27.768Z,7.53
2022-10-21T18:48:54.306Z,5.90
2022-10-21T18:51:22.469Z,11.10
2022-10-21T18:53:50.180Z,12.20
2022-10-21T18:56:19.704Z,7.30
2022-10-21T18:58:46.284Z,4.33
2022-10-21T19:01:14.951Z,3.47
2022-10-21T19:03:41.840Z,5.60
2022-10-21T19:06:14.706Z,6.70
2022-10-21T19:08:41.594Z,6.07
2022-10-21T19:11:08.234Z,7.30
2022-10-21T19:13:34.845Z,1.90
2022-10-21T19:16:01.437Z,3.67
2022-10-21T19:18:28.012Z,4.70
2022-10-21T19:20:54.598Z,4.43
2022-10-21T19:23:21.346Z,9.90
2022-10-21T19:25:48.186Z,4.43
2022-10-21T19:28:14.790Z,8.50
2022-10-21T19:30:43.031Z,3.73
2022-10-21T19:33:09.712Z,5.23
2022-10-21T19:35:37.086Z,3.90
2022-10-21T19:38:11.401Z,4.17
2022-10-21T19:40:38.357Z,7.50
2022-10-21T19:43:04.988Z,6.93
2022-10-21T19:45:33.685Z,9.27
2022-10-21T19:48:00.267Z,22.47
2022-10-21T19:50:26.885Z,5.13
2022-10-21T19:52:53.494Z,7.83
2022-10-21T19:55:20.396Z,2.93
2022-10-21T19:57:46.974Z,7.27
2022-10-21T20:00:13.611Z,5.87
2022-10-21T20:02:42.195Z,7.57
2022-10-21T20:05:09.114Z,4.80
2022-10-21T20:07:36.510Z,4.97
2022-10-21T20:10:03.910Z,17.77
2022-10-21T20:12:31.765Z,3.33
2022-10-21T20:14:58.476Z,5.00
2022-10-21T20:17:25.149Z,5.90
2022-10-21T20:19:51.658Z,11.70
2022-10-21T20:22:18.261Z,33.17
2022-10-21T20:24:46.321Z,3.87
2022-10-21T20:27:13.262Z,4.60
2022-10-21T20:29:39.760Z,5.03
2022-10-21T20:32:06.300Z,9.90
2022-10-21T20:34:34.029Z,8.20
2022-10-21T20:37:04.005Z,4.67
2022-10-21T20:39:30.556Z,11.13
2022-10-21T20:41:57.037Z,6.43
2022-10-21T20:44:23.586Z,9.63
2022-10-21T20:46:50.102Z,11.20
2022-10-21T20:49:16.670Z,4.00
2022-10-21T20:51:43.393Z,6.03
2022-10-21T20:54:13.319Z,6.33
2022-10-21T20:56:40.391Z,11.73
2022-10-21T20:59:08.206Z,7.17
2022-10-21T21:01:36.068Z,4.40
2022-10-21T21:04:08.257Z,7.13
2022-10-21T21:07:01.191Z,10.97
2022-10-21T21:09:50.107Z,4.20
2022-10-21T21:12:15.579Z,5.13
2022-10-21T21:14:42.095Z,5.50
2022-10-21T21:17:08.643Z,5.33
2022-10-21T21:19:35.151Z,8.50
2022-10-21T21:22:03.681Z,11.30
2022-10-21T21:24:30.308Z,6.53
2022-10-21T21:26:56.879Z,9.77
2022-10-21T21:29:23.436Z,7.53
2022-10-21T21:31:49.996Z,7.03
2022-10-21T21:34:16.554Z,11.50
2022-10-21T21:36:43.086Z,10.20
2022-10-21T21:39:11.017Z,7.03
2022-10-21T21:41:38.001Z,6.30
2022-10-21T21:44:05.004Z,14.57
2022-10-21T21:46:31.582Z,6.07
2022-10-21T21:49:05.227Z,8.93
2022-10-21T21:51:33.190Z,8.27
2022-10-21T21:53:59.902Z,6.03
2022-10-21T21:56:26.855Z,5.77
2022-10-21T21:58:57.827Z,13.80
2022-10-21T22:01:26.128Z,9.40
2022-10-21T22:03:52.936Z,32.93
2022-10-21T22:06:20.586Z,16.57
2022-10-21T22:08:48.832Z,8.10
2022-10-21T22:11:16.681Z,8.63
2022-10-21T22:13:43.312Z,9.83
2022-10-21T22:16:10.833Z,13.00
2022-10-21T22:18:37.700Z,6.33
2022-10-21T22:21:05.339Z,5.73
2022-10-21T22:23:32.160Z,36.03
2022-10-21T22:25:58.825Z,7.00
2022-10-21T22:28:25.402Z,5.83
2022-10-21T22:31:11.698Z,6.27
2022-10-21T22:33:38.480Z,11.40
2022-10-21T22:36:05.704Z,25.37
2022-10-21T22:38:32.294Z,7.17
2022-10-21T22:40:59.857Z,7.10
2022-10-21T22:43:27.116Z,10.60
2022-10-21T22:45:57.674Z,10.30
2022-10-21T22:48:36.624Z,20.60
2022-10-21T22:51:03.188Z,13.60
2022-10-21T22:53:29.716Z,9.53
2022-10-21T22:55:56.454Z,8.50
2022-10-21T22:58:23.441Z,18.87
2022-10-21T23:00:51.072Z,12.57
2022-10-21T23:03:18.792Z,14.90
2022-10-21T23:05:46.510Z,7.63
2022-10-21T23:08:13.061Z,13.83
2022-10-21T23:10:39.613Z,13.87
2022-10-21T23:13:06.446Z,8.90
2022-10-21T23:15:33.738Z,12.20
2022-10-21T23:18:00.438Z,12.43
2022-10-21T23:20:27.223Z,10.17
2022-10-21T23:22:53.916Z,5.37
2022-10-21T23:25:20.489Z,9.57
2022-10-21T23:27:47.030Z,13.73
2022-10-21T23:30:13.719Z,8.73
2022-10-21T23:32:40.659Z,10.73
2022-10-21T23:35:07.629Z,7.80
2022-10-21T23:37:34.144Z,7.67
2022-10-21T23:40:00.659Z,7.70
2022-10-21T23:42:27.197Z,25.40
2022-10-21T23:44:53.737Z,14.73
2022-10-21T23:47:20.256Z,7.57
2022-10-21T23:49:46.761Z,14.87
2022-10-21T23:52:13.547Z,17.13
2022-10-21T23:54:40.053Z,8.67
2022-10-21T23:57:06.604Z,19.17
2022-10-21T23:59:34.263Z,6.37
